Time;durP1;ratioP1;P1;durP2;ratioP2;P2;SDS_P1;SDS_P2;PMS_P1;PMS_P2;Temp;Humidity;BMP_temperature;BMP_pressure;BME280_temperature;BME280_humidity;BME280_pressure;Samples;Min_cycle;Max_cycle;Signal;HPM_P1;HPM_P2
2022/12/18 00:01:33;;;;;;;17.87;12.30;;;;;;;;;;5011593;28;20715;-52
2022/12/18 00:04:00;;;;;;;20.07;13.03;;;;;;;;;;5011591;28;20444;-53
2022/12/18 00:06:27;;;;;;;19.07;14.33;;;;;;;;;;5011565;28;20527;-52
2022/12/18 00:08:53;;;;;;;24.67;14.03;;;;;;;;;;5011683;28;20468;-52
2022/12/18 00:11:21;;;;;;;20.87;13.87;;;;;;;;;;5011429;28;20443;-53
2022/12/18 00:13:47;;;;;;;18.40;14.87;;;;;;;;;;5011604;28;20499;-53
2022/12/18 00:16:16;;;;;;;24.27;15.00;;;;;;;;;;5011355;28;20946;-53
2022/12/18 00:18:43;;;;;;;20.03;13.73;;;;;;;;;;5011558;28;20460;-53
2022/12/18 00:21:10;;;;;;;19.60;13.27;;;;;;;;;;5011568;28;20447;-54
2022/12/18 00:23:36;;;;;;;16.17;11.67;;;;;;;;;;5011433;28;20531;-53
2022/12/18 00:26:02;;;;;;;17.47;12.43;;;;;;;;;;5011398;28;20807;-55
2022/12/18 00:28:28;;;;;;;17.53;10.43;;;;;;;;;;5013078;28;20472;-53
2022/12/18 00:31:00;;;;;;;13.17;10.70;;;;;;;;;;5015611;28;20919;-53
2022/12/18 00:33:27;;;;;;;15.27;11.30;;;;;;;;;;5015364;28;20470;-52
2022/12/18 00:35:53;;;;;;;15.20;10.83;;;;;;;;;;5015220;28;20940;-53
2022/12/18 00:38:19;;;;;;;15.33;11.27;;;;;;;;;;5015060;28;21002;-53
2022/12/18 00:40:45;;;;;;;15.10;11.03;;;;;;;;;;5015216;28;20457;-53
2022/12/18 00:43:11;;;;;;;15.10;10.53;;;;;;;;;;5015241;28;20439;-53
2022/12/18 00:45:38;;;;;;;16.33;10.17;;;;;;;;;;5015412;28;20435;-54
2022/12/18 00:48:04;;;;;;;15.73;10.63;;;;;;;;;;5014822;28;20476;-54
2022/12/18 00:50:31;;;;;;;15.87;10.50;;;;;;;;;;5015015;28;20514;-53
2022/12/18 00:52:57;;;;;;;12.67;9.63;;;;;;;;;;5015258;28;20499;-53
2022/12/18 00:55:23;;;;;;;16.17;9.43;;;;;;;;;;5014954;28;20473;-53
2022/12/18 00:57:51;;;;;;;17.13;10.57;;;;;;;;;;5015035;28;20460;-53
2022/12/18 01:00:17;;;;;;;13.03;9.73;;;;;;;;;;5014560;28;20444;-53
2022/12/18 01:02:43;;;;;;;13.97;10.20;;;;;;;;;;5011400;28;20441;-50
2022/12/18 01:05:10;;;;;;;15.13;11.30;;;;;;;;;;5015030;28;20440;-50
2022/12/18 01:07:38;;;;;;;14.80;10.70;;;;;;;;;;5015035;28;20448;-53
2022/12/18 01:10:05;;;;;;;17.83;11.07;;;;;;;;;;5014669;28;20856;-54
2022/12/18 01:12:31;;;;;;;13.63;9.97;;;;;;;;;;5014764;28;20429;-52
2022/12/18 01:14:58;;;;;;;16.73;10.03;;;;;;;;;;5014794;28;20443;-52
2022/12/18 01:17:24;;;;;;;13.33;10.10;;;;;;;;;;5014711;28;20440;-53
2022/12/18 01:19:50;;;;;;;17.23;10.93;;;;;;;;;;5014690;28;20440;-54
2022/12/18 01:22:16;;;;;;;15.13;10.10;;;;;;;;;;5014456;28;20436;-54
2022/12/18 01:24:43;;;;;;;15.50;10.03;;;;;;;;;;5014674;28;20424;-52
2022/12/18 01:27:09;;;;;;;14.40;9.30;;;;;;;;;;5014663;28;20464;-53
2022/12/18 01:29:35;;;;;;;16.63;11.27;;;;;;;;;;5014464;28;21040;-53
2022/12/18 01:32:01;;;;;;;19.30;11.43;;;;;;;;;;5014408;28;20799;-53
2022/12/18 01:34:27;;;;;;;16.03;10.60;;;;;;;;;;5014233;28;20826;-53
2022/12/18 01:36:53;;;;;;;18.70;11.03;;;;;;;;;;5014477;28;20523;-53
2022/12/18 01:39:19;;;;;;;15.90;11.30;;;;;;;;;;5012940;28;21182;-53
2022/12/18 01:42:02;;;;;;;13.77;10.37;;;;;;;;;;5014033;28;20429;-53
2022/12/18 01:45:01;;;;;;;12.67;9.13;;;;;;;;;;5014111;28;20440;-53
2022/12/18 01:47:29;;;;;;;13.40;9.17;;;;;;;;;;4953598;29;20442;-53
2022/12/18 01:49:55;;;;;;;14.90;10.30;;;;;;;;;;4953573;29;20902;-54
2022/12/18 01:52:22;;;;;;;15.90;9.37;;;;;;;;;;4980812;28;20449;-53
2022/12/18 01:54:49;;;;;;;14.70;9.63;;;;;;;;;;5013876;28;20435;-53
2022/12/18 01:57:16;;;;;;;12.40;9.13;;;;;;;;;;5013804;28;20440;-54
2022/12/18 01:59:43;;;;;;;12.87;9.17;;;;;;;;;;5013977;28;20440;-52
2022/12/18 02:02:09;;;;;;;12.47;8.67;;;;;;;;;;5013886;28;20448;-53
2022/12/18 02:04:35;;;;;;;13.03;9.57;;;;;;;;;;5013950;28;20436;-54
2022/12/18 02:07:07;;;;;;;17.03;10.00;;;;;;;;;;5013706;28;20587;-53
2022/12/18 02:09:35;;;;;;;13.70;9.87;;;;;;;;;;5013559;28;20982;-54
2022/12/18 02:12:06;;;;;;;13.77;9.80;;;;;;;;;;5013567;28;20472;-54
2022/12/18 02:14:37;;;;;;;15.07;9.20;;;;;;;;;;5013561;28;20880;-54
2022/12/18 02:17:05;;;;;;;14.07;9.97;;;;;;;;;;5013568;28;20452;-53
2022/12/18 02:19:40;;;;;;;14.33;10.53;;;;;;;;;;5013555;28;20498;-53
2022/12/18 02:22:14;;;;;;;14.87;9.10;;;;;;;;;;5013841;28;20436;-54
2022/12/18 02:24:45;;;;;;;14.47;9.57;;;;;;;;;;5013568;28;20439;-52
2022/12/18 02:27:13;;;;;;;13.07;9.33;;;;;;;;;;5013298;28;20813;-53
2022/12/18 02:29:41;;;;;;;11.90;8.87;;;;;;;;;;5013419;28;20480;-52
2022/12/18 02:32:10;;;;;;;13.33;9.07;;;;;;;;;;5013316;28;20479;-52
2022/12/18 02:34:38;;;;;;;13.77;8.27;;;;;;;;;;5013092;28;20987;-52
2022/12/18 02:37:06;;;;;;;10.87;8.20;;;;;;;;;;5013147;28;20812;-52
2022/12/18 02:39:33;;;;;;;11.13;7.90;;;;;;;;;;5012932;28;20512;-52
2022/12/18 02:42:02;;;;;;;11.40;8.00;;;;;;;;;;5013001;28;20445;-52
2022/12/18 02:44:29;;;;;;;12.83;8.00;;;;;;;;;;5012933;28;20467;-56
2022/12/18 02:46:55;;;;;;;13.43;9.23;;;;;;;;;;5012995;28;20587;-52
2022/12/18 02:49:27;;;;;;;13.60;8.83;;;;;;;;;;5012867;28;20521;-52
2022/12/18 02:51:56;;;;;;;11.10;7.57;;;;;;;;;;5012602;28;20845;-51
2022/12/18 02:54:28;;;;;;;13.40;9.07;;;;;;;;;;5012774;28;20475;-51
2022/12/18 02:56:55;;;;;;;10.97;8.30;;;;;;;;;;5012964;28;20514;-51
2022/12/18 02:59:25;;;;;;;10.83;7.83;;;;;;;;;;5012724;28;20977;-52
2022/12/18 03:01:54;;;;;;;11.67;8.03;;;;;;;;;;5012936;28;20441;-51
2022/12/18 03:04:22;;;;;;;10.03;7.83;;;;;;;;;;5012648;28;20459;-52
2022/12/18 03:06:50;;;;;;;12.70;8.47;;;;;;;;;;5013030;28;20455;-52
2022/12/18 03:09:19;;;;;;;13.63;8.30;;;;;;;;;;5012390;28;20511;-52
2022/12/18 03:14:33;;;;;;;9.90;7.73;;;;;;;;;;5012467;28;20443;-52
2022/12/18 03:17:04;;;;;;;12.03;8.03;;;;;;;;;;5012448;28;20448;-52
2022/12/18 03:19:32;;;;;;;13.23;7.73;;;;;;;;;;5012331;28;20451;-52
2022/12/18 03:22:00;;;;;;;11.17;7.87;;;;;;;;;;5012447;28;20486;-53
2022/12/18 03:24:28;;;;;;;11.13;7.97;;;;;;;;;;5012210;28;20440;-52
2022/12/18 03:26:58;;;;;;;9.38;8.38;;;;;;;;;;5012309;28;20543;-52
2022/12/18 03:29:25;;;;;;;10.40;7.30;;;;;;;;;;5012150;28;20237;-52
2022/12/18 03:31:54;;;;;;;11.50;7.53;;;;;;;;;;5012260;28;20436;-52
2022/12/18 03:34:23;;;;;;;10.17;7.33;;;;;;;;;;5011966;28;20487;-52
2022/12/18 03:36:49;;;;;;;9.97;7.10;;;;;;;;;;5012320;28;20437;-52
2022/12/18 03:39:16;;;;;;;9.83;7.67;;;;;;;;;;5012044;28;20674;-53
2022/12/18 03:41:44;;;;;;;11.07;7.20;;;;;;;;;;5012124;28;20784;-53
2022/12/18 03:44:12;;;;;;;7.97;7.03;;;;;;;;;;5012150;28;20536;-53
2022/12/18 03:46:41;;;;;;;9.67;7.87;;;;;;;;;;5012103;28;20447;-53
2022/12/18 03:49:10;;;;;;;8.90;6.73;;;;;;;;;;5011920;28;21093;-53
2022/12/18 03:51:39;;;;;;;10.33;8.23;;;;;;;;;;5012093;28;20801;-53
2022/12/18 03:54:07;;;;;;;13.40;8.57;;;;;;;;;;5011846;28;20974;-53
2022/12/18 03:56:36;;;;;;;12.23;8.37;;;;;;;;;;5011841;28;20465;-53
2022/12/18 03:59:03;;;;;;;10.97;7.13;;;;;;;;;;5011835;28;20514;-53
2022/12/18 04:01:31;;;;;;;9.43;7.30;;;;;;;;;;5011699;28;20443;-53
2022/12/18 04:03:59;;;;;;;11.53;7.10;;;;;;;;;;5011283;28;20452;-53
2022/12/18 04:06:25;;;;;;;11.27;7.00;;;;;;;;;;5011995;28;20440;-52
2022/12/18 04:08:53;;;;;;;9.33;7.97;;;;;;;;;;5011744;28;20484;-52
2022/12/18 04:11:19;;;;;;;12.60;7.77;;;;;;;;;;5011489;28;20479;-53
2022/12/18 04:13:45;;;;;;;9.43;7.33;;;;;;;;;;5011653;28;20437;-53
2022/12/18 04:16:11;;;;;;;9.17;6.90;;;;;;;;;;5011565;28;20886;-53
2022/12/18 04:18:37;;;;;;;9.03;6.83;;;;;;;;;;5011635;28;20797;-52
2022/12/18 04:21:04;;;;;;;11.40;7.67;;;;;;;;;;5011459;28;20436;-53
2022/12/18 04:23:29;;;;;;;9.43;7.10;;;;;;;;;;5011393;28;20867;-52
2022/12/18 04:25:57;;;;;;;8.83;6.57;;;;;;;;;;5011413;28;20543;-53
2022/12/18 04:28:23;;;;;;;9.23;7.10;;;;;;;;;;5011475;28;20560;-53
2022/12/18 04:30:49;;;;;;;10.03;7.20;;;;;;;;;;5011568;28;20499;-53
2022/12/18 04:33:15;;;;;;;9.50;6.70;;;;;;;;;;5011388;28;20483;-52
2022/12/18 04:35:41;;;;;;;10.10;6.90;;;;;;;;;;5011459;28;20514;-53
2022/12/18 04:38:08;;;;;;;10.00;6.90;;;;;;;;;;5011351;28;21005;-53
2022/12/18 04:40:34;;;;;;;9.07;6.87;;;;;;;;;;5011197;28;20440;-53
2022/12/18 04:43:01;;;;;;;8.83;6.70;;;;;;;;;;5011412;28;20448;-53
2022/12/18 04:45:27;;;;;;;9.83;6.70;;;;;;;;;;5011234;28;20444;-53
2022/12/18 04:47:53;;;;;;;9.67;6.63;;;;;;;;;;5011355;28;20802;-51
2022/12/18 04:50:19;;;;;;;11.83;7.57;;;;;;;;;;5011227;28;20914;-51
2022/12/18 04:52:45;;;;;;;9.80;7.07;;;;;;;;;;5011221;28;20479;-52
2022/12/18 04:55:11;;;;;;;12.07;6.03;;;;;;;;;;5011178;28;20476;-54
2022/12/18 04:57:37;;;;;;;7.77;6.13;;;;;;;;;;5011282;28;20524;-53
2022/12/18 05:00:05;;;;;;;9.70;6.97;;;;;;;;;;5011144;28;20884;-52
2022/12/18 05:02:32;;;;;;;8.73;6.63;;;;;;;;;;5011206;28;21255;-53
2022/12/18 05:04:58;;;;;;;8.10;6.23;;;;;;;;;;5011241;28;20445;-51
2022/12/18 05:07:24;;;;;;;10.87;6.93;;;;;;;;;;5011244;28;20445;-53
2022/12/18 05:09:50;;;;;;;10.50;6.23;;;;;;;;;;5011110;28;20474;-52
2022/12/18 05:12:16;;;;;;;8.77;6.50;;;;;;;;;;5010883;28;20452;-53
2022/12/18 05:14:42;;;;;;;9.67;6.80;;;;;;;;;;5012992;28;20941;-53
2022/12/18 05:17:09;;;;;;;8.37;5.97;;;;;;;;;;5014823;28;20440;-51
2022/12/18 05:19:35;;;;;;;9.10;6.40;;;;;;;;;;5014642;28;20503;-51
2022/12/18 05:22:01;;;;;;;7.10;5.80;;;;;;;;;;5014686;28;20442;-53
2022/12/18 05:24:27;;;;;;;7.77;5.90;;;;;;;;;;5013993;28;20444;-52
2022/12/18 05:26:56;;;;;;;8.23;6.23;;;;;;;;;;5014595;28;20866;-53
2022/12/18 05:29:22;;;;;;;8.00;6.00;;;;;;;;;;5014546;28;20480;-53
2022/12/18 05:31:48;;;;;;;7.33;5.90;;;;;;;;;;5014427;28;20761;-53
2022/12/18 05:34:15;;;;;;;6.90;5.57;;;;;;;;;;5014323;28;20503;-53
2022/12/18 05:36:41;;;;;;;7.90;5.80;;;;;;;;;;5014511;28;20445;-51
2022/12/18 05:39:08;;;;;;;7.37;5.80;;;;;;;;;;5014309;28;20478;-53
2022/12/18 05:41:34;;;;;;;8.97;6.10;;;;;;;;;;5014170;28;20489;-52
2022/12/18 05:44:00;;;;;;;8.23;6.27;;;;;;;;;;5014235;28;20440;-52
2022/12/18 05:46:26;;;;;;;6.97;5.70;;;;;;;;;;5014173;28;20429;-52
2022/12/18 05:48:52;;;;;;;8.07;5.93;;;;;;;;;;5014327;28;20584;-52
2022/12/18 05:51:20;;;;;;;7.00;5.90;;;;;;;;;;5013971;28;20482;-52
2022/12/18 05:53:47;;;;;;;9.13;6.27;;;;;;;;;;5014187;28;20657;-53
2022/12/18 05:56:14;;;;;;;8.07;5.63;;;;;;;;;;5013875;28;20437;-52
2022/12/18 05:58:40;;;;;;;8.60;6.47;;;;;;;;;;5014183;28;20997;-52
2022/12/18 06:01:07;;;;;;;8.10;6.30;;;;;;;;;;5013960;28;20491;-53
2022/12/18 06:03:33;;;;;;;7.00;5.60;;;;;;;;;;5013951;28;20536;-52
2022/12/18 06:05:59;;;;;;;7.43;6.10;;;;;;;;;;5013832;28;20994;-52
2022/12/18 06:08:27;;;;;;;8.07;5.47;;;;;;;;;;5013716;28;20469;-54
2022/12/18 06:10:53;;;;;;;7.40;5.83;;;;;;;;;;5013925;28;20472;-52
2022/12/18 06:13:19;;;;;;;8.97;5.93;;;;;;;;;;5013631;28;20460;-53
2022/12/18 06:15:46;;;;;;;7.70;5.60;;;;;;;;;;5013755;28;20447;-53
2022/12/18 06:18:12;;;;;;;7.70;5.90;;;;;;;;;;5013599;28;20441;-53
2022/12/18 06:20:39;;;;;;;7.57;6.10;;;;;;;;;;5013705;28;20928;-53
2022/12/18 06:23:05;;;;;;;9.20;5.80;;;;;;;;;;5013640;28;20445;-53
2022/12/18 06:25:33;;;;;;;7.90;6.07;;;;;;;;;;5012846;28;20436;-52
2022/12/18 06:27:59;;;;;;;6.40;5.67;;;;;;;;;;5013419;28;20452;-53
2022/12/18 06:30:25;;;;;;;10.87;6.07;;;;;;;;;;5013306;28;20487;-52
2022/12/18 06:32:51;;;;;;;8.37;5.93;;;;;;;;;;5013518;28;20879;-53
2022/12/18 06:35:17;;;;;;;8.93;5.50;;;;;;;;;;5013108;28;20456;-53
2022/12/18 06:37:43;;;;;;;6.93;5.57;;;;;;;;;;5013190;28;20451;-53
2022/12/18 06:40:10;;;;;;;9.40;5.60;;;;;;;;;;5013090;28;20539;-53
2022/12/18 06:42:37;;;;;;;10.77;6.23;;;;;;;;;;5013356;28;20440;-53
2022/12/18 06:45:03;;;;;;;8.73;5.73;;;;;;;;;;5013110;28;21001;-53
2022/12/18 06:47:29;;;;;;;7.67;6.17;;;;;;;;;;5013132;28;20935;-52
2022/12/18 06:49:55;;;;;;;6.87;5.57;;;;;;;;;;5013044;28;20957;-53
2022/12/18 06:52:21;;;;;;;7.17;5.60;;;;;;;;;;5012855;28;20450;-51
2022/12/18 06:54:47;;;;;;;12.40;6.07;;;;;;;;;;5012819;28;20535;-52
2022/12/18 06:57:13;;;;;;;10.17;6.13;;;;;;;;;;5012773;28;20461;-53
2022/12/18 06:59:41;;;;;;;9.10;5.97;;;;;;;;;;5013064;28;20444;-53
2022/12/18 07:02:07;;;;;;;10.83;6.17;;;;;;;;;;5012911;28;20440;-53
2022/12/18 07:04:33;;;;;;;9.07;5.07;;;;;;;;;;5012652;28;20487;-52
2022/12/18 07:06:59;;;;;;;7.80;5.93;;;;;;;;;;5012699;28;20433;-52
2022/12/18 07:09:25;;;;;;;11.30;5.70;;;;;;;;;;5012461;28;20476;-52
2022/12/18 07:11:51;;;;;;;6.67;5.93;;;;;;;;;;5012658;28;20516;-52
2022/12/18 07:14:17;;;;;;;8.20;6.13;;;;;;;;;;5012329;28;20440;-53
2022/12/18 07:16:44;;;;;;;8.60;6.70;;;;;;;;;;5012658;28;20439;-53
2022/12/18 07:19:10;;;;;;;11.37;8.00;;;;;;;;;;5012459;28;20524;-53
2022/12/18 07:21:36;;;;;;;8.27;6.90;;;;;;;;;;5012407;28;20468;-53
2022/12/18 07:24:03;;;;;;;9.80;7.27;;;;;;;;;;5012201;28;20507;-53
2022/12/18 07:26:29;;;;;;;13.73;12.23;;;;;;;;;;5012237;28;20632;-50
2022/12/18 07:28:56;;;;;;;12.07;9.83;;;;;;;;;;5012416;28;20480;-50
2022/12/18 07:31:22;;;;;;;10.47;8.27;;;;;;;;;;5012340;28;20881;-51
2022/12/18 07:33:50;;;;;;;8.77;6.73;;;;;;;;;;5012115;28;20465;-50
2022/12/18 07:36:16;;;;;;;8.10;6.73;;;;;;;;;;5012197;28;20527;-50
2022/12/18 07:38:42;;;;;;;11.10;6.63;;;;;;;;;;5012146;28;20496;-50
2022/12/18 07:41:10;;;;;;;10.17;7.03;;;;;;;;;;5012157;28;20429;-50
2022/12/18 07:43:36;;;;;;;10.57;6.77;;;;;;;;;;5012062;28;20440;-50
2022/12/18 07:46:02;;;;;;;11.43;7.53;;;;;;;;;;5012021;28;20539;-50
2022/12/18 07:48:28;;;;;;;9.87;7.40;;;;;;;;;;5011699;28;20487;-50
2022/12/18 07:50:58;;;;;;;9.63;7.70;;;;;;;;;;5011985;28;20934;-50
2022/12/18 07:53:24;;;;;;;9.53;7.47;;;;;;;;;;5011977;28;20447;-51
2022/12/18 07:55:55;;;;;;;9.97;7.67;;;;;;;;;;5011700;28;20787;-50
2022/12/18 07:58:21;;;;;;;10.83;7.17;;;;;;;;;;5012076;28;20443;-50
2022/12/18 08:00:47;;;;;;;12.03;7.93;;;;;;;;;;5011885;28;20428;-52
2022/12/18 08:03:13;;;;;;;11.07;7.23;;;;;;;;;;5011671;28;20950;-52
2022/12/18 08:05:39;;;;;;;11.57;7.27;;;;;;;;;;5011840;28;20447;-51
2022/12/18 08:08:06;;;;;;;10.40;7.63;;;;;;;;;;5011672;28;20532;-52
2022/12/18 08:10:32;;;;;;;11.60;8.17;;;;;;;;;;5011390;28;20508;-51
2022/12/18 08:12:58;;;;;;;10.90;7.87;;;;;;;;;;5011811;28;20514;-51
2022/12/18 08:15:24;;;;;;;11.43;7.60;;;;;;;;;;5011714;28;20843;-51
2022/12/18 08:17:50;;;;;;;10.87;8.53;;;;;;;;;;5011525;28;20935;-51
2022/12/18 08:20:18;;;;;;;13.73;9.40;;;;;;;;;;5011625;28;20432;-51
2022/12/18 08:22:44;;;;;;;16.40;10.40;;;;;;;;;;5011560;28;20437;-51
2022/12/18 08:25:11;;;;;;;17.80;12.40;;;;;;;;;;5011556;28;20865;-50
2022/12/18 08:27:37;;;;;;;19.47;12.70;;;;;;;;;;5011622;28;21006;-51
2022/12/18 08:30:04;;;;;;;15.93;11.90;;;;;;;;;;5011378;28;20876;-49
2022/12/18 08:32:32;;;;;;;12.97;10.10;;;;;;;;;;5011659;28;20437;-51
2022/12/18 08:34:58;;;;;;;14.87;10.53;;;;;;;;;;5011281;28;20457;-52
2022/12/18 08:37:24;;;;;;;12.03;9.17;;;;;;;;;;5011690;28;20502;-51
2022/12/18 08:39:50;;;;;;;12.47;9.37;;;;;;;;;;5011463;28;20472;-51
2022/12/18 08:45:02;;;;;;;12.57;8.67;;;;;;;;;;5011682;28;20420;-51
2022/12/18 08:47:28;;;;;;;10.60;7.80;;;;;;;;;;5008484;28;20455;-51
2022/12/18 08:49:54;;;;;;;10.37;7.23;;;;;;;;;;5013336;28;21006;-51
2022/12/18 08:52:20;;;;;;;11.43;7.53;;;;;;;;;;5014544;28;20923;-52
2022/12/18 08:54:46;;;;;;;9.80;6.30;;;;;;;;;;5013202;28;20532;-52
2022/12/18 08:57:12;;;;;;;8.47;5.63;;;;;;;;;;5014754;28;20435;-51
2022/12/18 08:59:39;;;;;;;8.23;5.83;;;;;;;;;;5014960;28;20459;-52
2022/12/18 09:02:06;;;;;;;7.03;5.60;;;;;;;;;;5014745;28;20440;-52
2022/12/18 09:04:32;;;;;;;8.17;5.67;;;;;;;;;;5014654;28;20778;-52
2022/12/18 09:06:58;;;;;;;6.83;5.60;;;;;;;;;;5014725;28;20985;-53
2022/12/18 09:09:24;;;;;;;7.67;6.20;;;;;;;;;;5014883;28;20276;-53
2022/12/18 09:11:50;;;;;;;7.67;5.97;;;;;;;;;;5014613;28;20490;-53
2022/12/18 09:14:16;;;;;;;9.20;6.53;;;;;;;;;;5014583;28;20808;-52
2022/12/18 09:16:43;;;;;;;8.77;6.17;;;;;;;;;;5014588;28;20229;-53
2022/12/18 09:19:10;;;;;;;7.83;6.77;;;;;;;;;;5014733;28;20657;-52
2022/12/18 09:21:36;;;;;;;8.80;7.10;;;;;;;;;;5014475;28;20198;-52
2022/12/18 09:24:02;;;;;;;10.60;9.50;;;;;;;;;;5014512;28;20489;-52
2022/12/18 09:26:28;;;;;;;9.57;8.57;;;;;;;;;;5014260;28;20201;-52
2022/12/18 09:28:55;;;;;;;8.40;7.47;;;;;;;;;;5014373;28;20291;-52
2022/12/18 09:31:22;;;;;;;10.13;7.10;;;;;;;;;;5014429;28;20206;-53
2022/12/18 09:33:49;;;;;;;8.80;7.63;;;;;;;;;;5014187;28;20684;-53
2022/12/18 09:36:17;;;;;;;9.17;7.50;;;;;;;;;;5014112;28;20699;-53
2022/12/18 09:38:43;;;;;;;9.07;6.83;;;;;;;;;;5014020;28;20248;-52
2022/12/18 09:41:18;;;;;;;7.93;7.10;;;;;;;;;;5014299;28;20201;-53
2022/12/18 09:43:46;;;;;;;6.40;5.70;;;;;;;;;;5014016;28;20244;-53
2022/12/18 09:46:28;;;;;;;7.17;6.47;;;;;;;;;;5013957;28;20225;-53
2022/12/18 09:48:58;;;;;;;9.97;6.60;;;;;;;;;;5014102;28;20329;-52
2022/12/18 09:51:26;;;;;;;8.17;6.67;;;;;;;;;;5013995;28;20206;-52
2022/12/18 09:53:56;;;;;;;8.50;7.33;;;;;;;;;;5013960;28;20197;-53
2022/12/18 09:56:24;;;;;;;8.63;5.90;;;;;;;;;;5013837;28;20564;-52
2022/12/18 09:58:52;;;;;;;6.53;5.90;;;;;;;;;;5013995;28;20202;-52
2022/12/18 10:01:20;;;;;;;8.53;7.03;;;;;;;;;;5012499;28;20746;-52
2022/12/18 10:03:46;;;;;;;9.70;7.07;;;;;;;;;;5013669;28;20677;-53
2022/12/18 10:06:16;;;;;;;11.37;8.17;;;;;;;;;;5013689;28;20209;-52
2022/12/18 10:08:45;;;;;;;14.17;9.33;;;;;;;;;;5013424;28;20236;-53
2022/12/18 10:11:22;;;;;;;15.33;10.13;;;;;;;;;;5013647;28;20298;-53
2022/12/18 10:13:52;;;;;;;11.53;9.53;;;;;;;;;;5013690;28;20204;-53
2022/12/18 10:16:25;;;;;;;9.70;8.27;;;;;;;;;;5013401;28;20660;-53
2022/12/18 10:19:00;;;;;;;10.60;8.57;;;;;;;;;;5013603;28;20189;-52
2022/12/18 10:21:30;;;;;;;10.00;8.03;;;;;;;;;;5013354;28;20228;-53
2022/12/18 10:24:00;;;;;;;8.53;7.60;;;;;;;;;;5013305;28;20201;-53
2022/12/18 10:26:26;;;;;;;10.57;8.70;;;;;;;;;;5013220;28;20209;-53
2022/12/18 10:28:54;;;;;;;11.70;9.50;;;;;;;;;;5013461;28;20225;-54
2022/12/18 10:31:21;;;;;;;15.60;9.90;;;;;;;;;;5013091;28;20263;-52
2022/12/18 10:33:47;;;;;;;10.97;8.30;;;;;;;;;;5013030;28;20222;-54
2022/12/18 10:36:14;;;;;;;10.20;8.03;;;;;;;;;;5013063;28;20197;-53
2022/12/18 10:38:42;;;;;;;10.73;7.90;;;;;;;;;;5013230;28;20651;-53
2022/12/18 10:41:26;;;;;;;9.37;7.60;;;;;;;;;;5013577;28;20285;-52
2022/12/18 10:44:10;;;;;;;10.27;7.97;;;;;;;;;;5013176;28;20205;-54
2022/12/18 10:46:36;;;;;;;10.33;7.60;;;;;;;;;;5012948;28;20201;-54
2022/12/18 10:49:02;;;;;;;8.70;7.50;;;;;;;;;;5012805;28;20256;-53
2022/12/18 10:51:30;;;;;;;13.00;8.83;;;;;;;;;;5012631;28;20202;-52
2022/12/18 10:53:59;;;;;;;9.67;7.03;;;;;;;;;;5012797;28;20206;-52
2022/12/18 10:56:27;;;;;;;10.03;7.43;;;;;;;;;;5012749;28;20683;-52
2022/12/18 10:58:58;;;;;;;8.67;7.07;;;;;;;;;;5013044;28;20277;-53
2022/12/18 11:01:24;;;;;;;8.43;7.47;;;;;;;;;;5012696;28;20249;-52
2022/12/18 11:03:59;;;;;;;8.27;7.33;;;;;;;;;;5012548;28;20208;-52
2022/12/18 11:06:26;;;;;;;8.10;6.60;;;;;;;;;;5012800;28;20638;-52
2022/12/18 11:08:59;;;;;;;8.83;6.13;;;;;;;;;;5012590;28;20275;-53
2022/12/18 11:11:25;;;;;;;6.83;5.60;;;;;;;;;;5012355;28;20201;-53
2022/12/18 11:13:57;;;;;;;10.30;6.73;;;;;;;;;;5012463;28;20205;-52
2022/12/18 11:16:23;;;;;;;7.53;5.73;;;;;;;;;;5012461;28;20201;-51
2022/12/18 11:18:49;;;;;;;7.77;5.60;;;;;;;;;;5012337;28;20190;-51
2022/12/18 11:21:16;;;;;;;6.57;5.77;;;;;;;;;;5012100;28;20201;-51
2022/12/18 11:23:46;;;;;;;7.97;5.27;;;;;;;;;;5012171;28;20201;-50
2022/12/18 11:26:14;;;;;;;6.93;5.03;;;;;;;;;;5012375;28;20198;-50
2022/12/18 11:28:41;;;;;;;6.00;5.17;;;;;;;;;;5012488;28;20288;-50
2022/12/18 11:31:18;;;;;;;7.07;5.50;;;;;;;;;;5012382;28;20201;-52
2022/12/18 11:33:46;;;;;;;6.60;5.30;;;;;;;;;;5012074;28;20691;-52
2022/12/18 11:36:13;;;;;;;6.37;5.37;;;;;;;;;;5012060;28;20289;-52
2022/12/18 11:38:40;;;;;;;6.07;5.07;;;;;;;;;;5010286;28;20237;-52
2022/12/18 11:41:10;;;;;;;7.37;5.53;;;;;;;;;;5012220;28;20303;-51
2022/12/18 11:43:40;;;;;;;8.30;6.07;;;;;;;;;;5012198;28;20190;-52
2022/12/18 11:46:09;;;;;;;6.73;6.03;;;;;;;;;;5012166;28;20198;-53
2022/12/18 11:48:39;;;;;;;6.83;5.20;;;;;;;;;;5011911;28;20281;-52
2022/12/18 11:51:06;;;;;;;6.63;5.00;;;;;;;;;;5012080;28;20202;-51
2022/12/18 11:53:32;;;;;;;5.87;5.03;;;;;;;;;;5011700;28;20687;-51
2022/12/18 11:56:05;;;;;;;6.67;4.67;;;;;;;;;;5012002;28;20198;-52
2022/12/18 11:58:40;;;;;;;5.17;4.67;;;;;;;;;;5011810;28;20205;-51
2022/12/18 12:01:14;;;;;;;6.73;4.90;;;;;;;;;;5011883;28;20239;-50
2022/12/18 12:03:48;;;;;;;5.87;4.37;;;;;;;;;;5011910;28;20212;-50
2022/12/18 12:06:20;;;;;;;5.17;4.67;;;;;;;;;;5011806;28;20240;-51
2022/12/18 12:08:53;;;;;;;5.27;4.27;;;;;;;;;;5011621;28;20193;-52
2022/12/18 12:11:22;;;;;;;5.97;4.50;;;;;;;;;;5011595;28;20730;-51
2022/12/18 12:13:58;;;;;;;7.50;5.00;;;;;;;;;;5011759;28;20208;-52
2022/12/18 12:16:30;;;;;;;4.90;4.40;;;;;;;;;;5011851;28;20297;-51
2022/12/18 12:19:07;;;;;;;7.40;4.77;;;;;;;;;;5011741;28;20202;-52
2022/12/18 12:21:37;;;;;;;5.97;4.50;;;;;;;;;;5011588;28;20201;-51
2022/12/18 12:24:06;;;;;;;5.27;4.63;;;;;;;;;;5010894;28;20255;-51
2022/12/18 12:26:36;;;;;;;6.87;4.30;;;;;;;;;;5011454;28;20575;-51
2022/12/18 12:29:07;;;;;;;5.07;4.13;;;;;;;;;;5011531;28;20507;-52
2022/12/18 12:31:39;;;;;;;5.80;4.17;;;;;;;;;;5011415;28;20445;-50
2022/12/18 12:34:10;;;;;;;5.50;3.97;;;;;;;;;;5011366;28;20469;-50
2022/12/18 12:36:41;;;;;;;5.37;4.20;;;;;;;;;;5011473;28;20441;-51
2022/12/18 12:39:11;;;;;;;4.33;3.63;;;;;;;;;;5011339;28;21025;-51
2022/12/18 12:44:24;;;;;;;5.53;4.40;;;;;;;;;;5011474;28;20416;-51
2022/12/18 12:46:53;;;;;;;5.00;4.20;;;;;;;;;;5011428;28;20472;-50
2022/12/18 12:49:20;;;;;;;5.27;3.97;;;;;;;;;;5011246;28;20472;-52
2022/12/18 12:51:50;;;;;;;5.30;3.57;;;;;;;;;;5011345;28;20495;-51
2022/12/18 12:54:18;;;;;;;5.10;3.97;;;;;;;;;;5011309;28;20535;-54
2022/12/18 12:56:46;;;;;;;4.60;3.33;;;;;;;;;;5011088;28;20531;-50
2022/12/18 12:59:14;;;;;;;8.73;5.73;;;;;;;;;;5011249;28;20436;-51
2022/12/18 13:01:42;;;;;;;5.00;4.00;;;;;;;;;;5011289;28;20504;-51
2022/12/18 13:04:13;;;;;;;5.67;3.87;;;;;;;;;;5011317;28;20433;-50
2022/12/18 13:06:43;;;;;;;4.70;4.00;;;;;;;;;;5011147;28;20443;-51
2022/12/18 13:09:10;;;;;;;4.43;3.47;;;;;;;;;;5011078;28;20546;-51
2022/12/18 13:14:23;;;;;;;4.23;3.70;;;;;;;;;;5011113;28;20416;-51
2022/12/18 13:16:49;;;;;;;6.03;4.40;;;;;;;;;;5011101;28;20945;-51
2022/12/18 13:19:22;;;;;;;6.30;3.83;;;;;;;;;;5011320;28;20479;-52
2022/12/18 13:21:53;;;;;;;5.10;4.00;;;;;;;;;;5011444;28;20447;-51
2022/12/18 13:24:23;;;;;;;5.63;3.97;;;;;;;;;;5009231;28;20444;-51
2022/12/18 13:26:49;;;;;;;4.50;3.77;;;;;;;;;;5010701;28;20472;-52
2022/12/18 13:29:40;;;;;;;7.93;4.40;;;;;;;;;;5010729;28;20495;-52
2022/12/18 13:32:19;;;;;;;5.90;3.50;;;;;;;;;;5010939;28;20918;-52
2022/12/18 13:34:47;;;;;;;7.70;4.30;;;;;;;;;;5011134;28;20467;-51
2022/12/18 13:37:31;;;;;;;6.90;4.17;;;;;;;;;;5014217;28;20446;-50
2022/12/18 13:39:57;;;;;;;7.07;4.60;;;;;;;;;;5013978;28;20495;-54
2022/12/18 13:45:40;;;;;;;5.07;4.27;;;;;;;;;;5014348;28;20416;-53
2022/12/18 13:48:14;;;;;;;6.77;5.60;;;;;;;;;;5013990;28;20444;-52
2022/12/18 13:50:42;;;;;;;9.57;6.40;;;;;;;;;;5013903;28;20515;-51
2022/12/18 13:53:17;;;;;;;8.67;6.10;;;;;;;;;;5014066;28;20455;-50
2022/12/18 13:55:44;;;;;;;6.57;5.23;;;;;;;;;;5013791;28;21017;-54
2022/12/18 13:58:12;;;;;;;7.83;6.27;;;;;;;;;;5013877;28;20432;-51
2022/12/18 14:00:41;;;;;;;6.13;5.40;;;;;;;;;;5013684;28;20527;-52
2022/12/18 14:03:16;;;;;;;8.27;5.90;;;;;;;;;;5013783;28;20439;-52
2022/12/18 14:05:46;;;;;;;6.37;5.17;;;;;;;;;;5013573;28;20523;-52
2022/12/18 14:08:14;;;;;;;8.23;5.40;;;;;;;;;;5013571;28;20441;-51
2022/12/18 14:10:41;;;;;;;7.00;5.60;;;;;;;;;;5013434;28;20468;-51
2022/12/18 14:13:08;;;;;;;6.80;5.83;;;;;;;;;;5013885;28;20831;-52
2022/12/18 14:15:36;;;;;;;8.30;5.70;;;;;;;;;;5013594;28;20453;-52
2022/12/18 14:18:03;;;;;;;6.37;5.07;;;;;;;;;;5013856;28;20444;-51
2022/12/18 14:20:30;;;;;;;8.20;5.87;;;;;;;;;;5013473;28;20437;-51
2022/12/18 14:22:58;;;;;;;6.10;4.60;;;;;;;;;;5013575;28;20465;-51
2022/12/18 14:25:25;;;;;;;7.23;6.40;;;;;;;;;;4996976;28;20533;-52
2022/12/18 14:27:52;;;;;;;9.97;7.57;;;;;;;;;;4993990;28;20852;-53
2022/12/18 14:30:27;;;;;;;7.60;5.53;;;;;;;;;;4993755;28;20568;-52
2022/12/18 14:33:00;;;;;;;7.90;5.30;;;;;;;;;;4994033;28;20855;-52
2022/12/18 14:35:26;;;;;;;7.87;5.60;;;;;;;;;;4993595;28;20465;-53
2022/12/18 14:37:52;;;;;;;6.00;5.40;;;;;;;;;;4993914;28;20441;-53
2022/12/18 14:40:19;;;;;;;7.27;5.70;;;;;;;;;;4993550;28;20473;-51
2022/12/18 14:42:45;;;;;;;10.33;7.33;;;;;;;;;;4993592;28;20442;-52
2022/12/18 14:45:29;;;;;;;8.20;5.40;;;;;;;;;;4998996;28;20440;-54
2022/12/18 14:47:55;;;;;;;11.50;6.90;;;;;;;;;;4999557;28;20575;-54
2022/12/18 14:50:21;;;;;;;8.40;6.37;;;;;;;;;;5012831;28;20489;-54
2022/12/18 14:52:47;;;;;;;9.50;6.27;;;;;;;;;;5012848;28;20444;-54
2022/12/18 14:55:15;;;;;;;8.00;5.73;;;;;;;;;;5012426;28;20927;-54